Time;durP1;ratioP1;P1;durP2;ratioP2;P2;SDS_P1;SDS_P2;PMS_P1;PMS_P2;Temp;Humidity;BMP_temperature;BMP_pressure;BME280_temperature;BME280_humidity;BME280_pressure;Samples;Min_cycle;Max_cycle;Signal;HPM_P1;HPM_P2
2023/09/01 00:01:20;;;;;;;9.30;4.70;;;17.70;79.30;;;;;;5067671;28;20491;-79
2023/09/01 00:04:14;;;;;;;8.83;4.80;;;17.70;79.30;;;;;;5063971;28;20970;-81
2023/09/01 00:06:43;;;;;;;7.77;5.10;;;17.70;79.40;;;;;;5066183;28;20452;-81
2023/09/01 00:09:11;;;;;;;10.50;5.07;;;17.70;79.50;;;;;;5066692;28;20453;-81
2023/09/01 00:11:39;;;;;;;9.83;4.90;;;17.70;79.60;;;;;;5067675;28;20461;-79
2023/09/01 00:14:07;;;;;;;14.53;5.17;;;17.70;79.60;;;;;;5082018;28;20458;-80
2023/09/01 00:16:35;;;;;;;8.87;5.27;;;17.70;79.60;;;;;;5066554;28;20475;-80
2023/09/01 00:19:03;;;;;;;12.50;5.77;;;17.60;79.80;;;;;;5067629;28;20457;-78
2023/09/01 00:21:32;;;;;;;10.87;5.20;;;17.60;79.90;;;;;;5067459;28;20482;-79
2023/09/01 00:24:03;;;;;;;10.90;5.10;;;17.60;79.90;;;;;;5078897;28;20527;-78
2023/09/01 00:26:31;;;;;;;11.57;5.43;;;17.60;80.10;;;;;;5062399;28;20822;-78
2023/09/01 00:28:59;;;;;;;12.10;5.73;;;17.60;80.10;;;;;;5068534;28;20467;-81
2023/09/01 00:31:27;;;;;;;9.07;4.23;;;17.60;80.20;;;;;;5067247;28;20477;-79
2023/09/01 00:33:55;;;;;;;10.63;5.20;;;17.60;80.20;;;;;;5066700;28;20524;-80
2023/09/01 00:36:23;;;;;;;8.43;4.40;;;17.60;80.20;;;;;;5066734;28;20475;-80
2023/09/01 00:38:51;;;;;;;8.63;4.30;;;17.60;80.20;;;;;;5062962;28;20459;-78
2023/09/01 00:41:24;;;;;;;11.23;5.10;;;17.60;80.20;;;;;;5066569;28;20967;-79
2023/09/01 00:43:52;;;;;;;8.30;4.10;;;17.60;80.40;;;;;;5065433;28;20455;-81
2023/09/01 00:46:20;;;;;;;8.10;4.53;;;17.60;80.40;;;;;;5065013;28;20468;-79
2023/09/01 00:48:49;;;;;;;9.20;4.40;;;17.70;80.30;;;;;;5056545;28;20500;-79
2023/09/01 00:51:17;;;;;;;9.17;4.67;;;17.70;80.30;;;;;;5066638;28;20489;-78
2023/09/01 00:53:45;;;;;;;9.53;4.33;;;17.70;80.40;;;;;;5063918;28;20526;-79
2023/09/01 00:56:14;;;;;;;8.80;4.23;;;17.70;80.30;;;;;;5068645;28;20465;-79
2023/09/01 00:58:43;;;;;;;8.83;4.20;;;17.60;80.40;;;;;;5062006;28;21167;-80
2023/09/01 01:01:11;;;;;;;14.17;4.80;;;17.60;80.40;;;;;;5061730;28;20485;-79
2023/09/01 01:03:41;;;;;;;9.73;5.40;;;17.60;80.40;;;;;;5069164;28;20486;-79
2023/09/01 01:06:19;;;;;;;7.83;4.03;;;17.60;80.50;;;;;;5062168;28;20458;-81
2023/09/01 01:09:01;;;;;;;7.57;4.33;;;17.60;80.60;;;;;;5062185;28;20865;-80
2023/09/01 01:11:37;;;;;;;8.30;3.87;;;17.60;80.60;;;;;;5058756;28;20456;-81
2023/09/01 01:14:12;;;;;;;10.17;4.30;;;17.60;80.60;;;;;;5061222;28;20455;-79
2023/09/01 01:16:40;;;;;;;8.63;4.00;;;17.60;80.60;;;;;;5059998;28;20493;-80
2023/09/01 01:19:20;;;;;;;12.93;4.97;;;17.60;80.60;;;;;;5060945;28;20468;-80
2023/09/01 01:21:53;;;;;;;11.83;4.80;;;17.60;80.80;;;;;;5056166;28;20457;-79
2023/09/01 01:24:23;;;;;;;8.70;3.90;;;17.60;80.80;;;;;;5065939;28;20461;-78
2023/09/01 01:26:52;;;;;;;7.93;4.47;;;17.60;80.70;;;;;;5062062;28;20462;-79
2023/09/01 01:29:20;;;;;;;8.80;4.70;;;17.60;80.70;;;;;;5059116;28;20498;-78
2023/09/01 01:31:48;;;;;;;8.63;4.67;;;17.50;80.70;;;;;;5059327;28;20488;-81
2023/09/01 01:34:26;;;;;;;10.03;4.80;;;17.50;80.80;;;;;;5065698;28;20991;-79
2023/09/01 01:37:02;;;;;;;10.67;4.30;;;17.40;80.80;;;;;;5060223;28;20958;-80
2023/09/01 01:39:35;;;;;;;12.87;5.20;;;17.40;81.00;;;;;;5065633;28;20467;-80
2023/09/01 01:42:06;;;;;;;9.50;4.67;;;17.40;81.10;;;;;;5075075;28;20462;-79
2023/09/01 01:44:38;;;;;;;8.93;4.90;;;17.30;81.20;;;;;;5061831;28;20493;-81
2023/09/01 01:47:08;;;;;;;8.40;4.57;;;17.30;81.30;;;;;;5065982;28;20461;-81
2023/09/01 01:49:36;;;;;;;9.87;5.00;;;17.30;81.30;;;;;;5077753;28;21041;-80
2023/09/01 01:52:04;;;;;;;9.63;5.07;;;17.30;81.40;;;;;;5066014;28;20549;-80
2023/09/01 01:54:34;;;;;;;8.50;4.63;;;17.40;81.50;;;;;;5065406;28;20539;-80
2023/09/01 01:57:02;;;;;;;9.00;4.07;;;17.40;81.40;;;;;;5069652;28;20456;-78
2023/09/01 01:59:30;;;;;;;13.47;5.87;;;17.40;81.40;;;;;;5086019;28;20465;-79
2023/09/01 02:01:58;;;;;;;9.30;5.13;;;17.40;81.40;;;;;;5063938;28;20465;-80
2023/09/01 02:04:26;;;;;;;9.50;4.70;;;17.40;81.50;;;;;;5070639;28;20464;-79
2023/09/01 02:06:55;;;;;;;10.20;5.33;;;17.30;81.60;;;;;;5071436;28;20458;-79
2023/09/01 02:09:23;;;;;;;9.13;4.67;;;17.30;81.70;;;;;;5072067;28;20452;-78
2023/09/01 02:11:52;;;;;;;8.30;4.20;;;17.40;81.70;;;;;;5065667;28;20556;-80
2023/09/01 02:14:21;;;;;;;9.30;4.40;;;17.40;81.60;;;;;;5068178;28;20457;-79
2023/09/01 02:16:49;;;;;;;9.33;4.40;;;17.40;81.60;;;;;;5068555;28;20461;-81
2023/09/01 02:19:17;;;;;;;8.80;4.43;;;17.40;81.60;;;;;;5068716;28;20475;-80
2023/09/01 02:21:45;;;;;;;7.37;3.90;;;17.40;81.70;;;;;;5067508;28;20552;-81
2023/09/01 02:24:13;;;;;;;8.13;4.40;;;17.40;81.80;;;;;;5083638;28;20474;-79
2023/09/01 02:26:41;;;;;;;7.20;4.30;;;17.40;81.90;;;;;;5070334;28;20450;-81
2023/09/01 02:29:10;;;;;;;8.10;3.70;;;17.40;81.90;;;;;;5066312;28;20514;-80
2023/09/01 02:31:39;;;;;;;6.87;3.57;;;17.40;82.00;;;;;;5064221;28;20513;-80
2023/09/01 02:34:07;;;;;;;8.93;4.80;;;17.40;81.90;;;;;;5068042;28;20453;-78
2023/09/01 02:36:36;;;;;;;8.87;4.00;;;17.40;81.90;;;;;;5066578;28;20815;-79
2023/09/01 02:39:06;;;;;;;9.50;4.13;;;17.40;81.90;;;;;;5065054;28;20523;-81
2023/09/01 02:41:34;;;;;;;6.83;3.93;;;17.30;81.90;;;;;;5077009;28;20468;-79
2023/09/01 02:44:02;;;;;;;9.27;4.40;;;17.30;82.00;;;;;;5078284;28;20490;-79
2023/09/01 02:46:33;;;;;;;10.00;4.40;;;17.30;82.10;;;;;;5065587;28;20472;-79
2023/09/01 02:49:01;;;;;;;8.43;4.30;;;17.30;82.10;;;;;;5065791;28;20823;-79
2023/09/01 02:51:29;;;;;;;9.17;3.93;;;17.40;82.20;;;;;;5068112;28;20463;-79
2023/09/01 02:53:57;;;;;;;6.60;3.57;;;17.40;82.10;;;;;;5067159;28;20455;-80
2023/09/01 02:56:26;;;;;;;6.87;3.70;;;17.40;82.10;;;;;;5062629;28;20480;-80
2023/09/01 02:58:54;;;;;;;8.00;3.83;;;17.40;82.00;;;;;;5063463;28;20466;-79
2023/09/01 03:01:23;;;;;;;9.33;4.43;;;17.40;82.00;;;;;;5063544;28;20530;-80
2023/09/01 03:03:52;;;;;;;6.87;3.50;;;17.40;82.20;;;;;;5063093;28;20475;-81
2023/09/01 03:06:20;;;;;;;5.50;3.23;;;17.40;82.30;;;;;;5068183;28;20931;-81
2023/09/01 03:08:48;;;;;;;7.27;3.80;;;17.40;82.20;;;;;;5066366;28;20504;-81
2023/09/01 03:11:16;;;;;;;7.43;4.50;;;17.40;82.20;;;;;;5062563;28;20472;-80
2023/09/01 03:13:44;;;;;;;8.23;4.77;;;17.40;82.20;;;;;;5068343;28;20966;-80
2023/09/01 03:16:12;;;;;;;6.47;3.57;;;17.40;82.20;;;;;;5062669;28;20519;-81
2023/09/01 03:18:41;;;;;;;7.80;4.13;;;17.40;82.20;;;;;;5066230;28;20544;-79
2023/09/01 03:21:11;;;;;;;7.87;3.83;;;17.40;82.20;;;;;;5063582;28;20457;-80
2023/09/01 03:23:39;;;;;;;7.80;4.20;;;17.40;82.40;;;;;;5066257;28;21040;-82
2023/09/01 03:26:08;;;;;;;6.20;3.50;;;17.40;82.40;;;;;;5063342;28;20473;-80
2023/09/01 03:28:36;;;;;;;6.50;3.60;;;17.50;82.20;;;;;;5063277;28;20465;-81
2023/09/01 03:31:10;;;;;;;7.23;4.07;;;17.50;82.40;;;;;;5063394;28;20573;-80
2023/09/01 03:33:43;;;;;;;5.90;3.50;;;17.50;82.40;;;;;;5081195;28;20468;-80
2023/09/01 03:36:15;;;;;;;6.50;3.60;;;17.50;82.20;;;;;;5076638;28;20494;-79
2023/09/01 03:38:43;;;;;;;7.20;4.13;;;17.40;82.40;;;;;;5079877;28;20466;-79
2023/09/01 03:41:11;;;;;;;6.60;4.10;;;17.40;82.40;;;;;;5079907;28;20461;-80
2023/09/01 03:43:41;;;;;;;6.33;3.83;;;17.40;82.40;;;;;;5066851;28;20469;-79
2023/09/01 03:46:09;;;;;;;7.53;4.00;;;17.40;82.40;;;;;;5082788;28;20461;-80
2023/09/01 03:48:38;;;;;;;5.97;3.20;;;17.40;82.40;;;;;;5063087;28;20466;-81
2023/09/01 03:51:07;;;;;;;6.53;3.63;;;17.40;82.60;;;;;;5077121;28;20458;-79
2023/09/01 03:53:38;;;;;;;6.00;3.43;;;17.40;82.60;;;;;;5067736;28;20453;-78
2023/09/01 03:56:12;;;;;;;6.60;3.63;;;17.50;82.60;;;;;;5058527;28;20450;-78
2023/09/01 03:58:41;;;;;;;6.97;3.00;;;17.50;82.60;;;;;;5067591;28;20449;-80
2023/09/01 04:01:11;;;;;;;6.13;2.80;;;17.50;82.60;;;;;;5065389;28;21010;-81
2023/09/01 04:03:42;;;;;;;5.77;2.90;;;17.50;82.60;;;;;;5057649;28;20473;-81
2023/09/01 04:06:10;;;;;;;6.33;2.87;;;17.50;82.60;;;;;;5065861;28;20475;-80
2023/09/01 04:08:40;;;;;;;6.53;2.53;;;17.50;82.60;;;;;;5081970;28;20461;-80
2023/09/01 04:11:09;;;;;;;5.47;2.73;;;17.60;82.60;;;;;;5066376;28;20881;-80
2023/09/01 04:13:38;;;;;;;5.90;2.87;;;17.60;82.80;;;;;;5066279;28;20442;-81
2023/09/01 04:16:06;;;;;;;5.03;2.50;;;17.60;82.60;;;;;;5065538;28;20496;-81
2023/09/01 04:18:34;;;;;;;5.07;2.80;;;17.60;82.60;;;;;;5061255;28;20503;-80
2023/09/01 04:21:02;;;;;;;6.57;2.90;;;17.60;82.60;;;;;;5068090;28;20454;-79
2023/09/01 04:23:32;;;;;;;5.87;2.60;;;17.50;82.80;;;;;;5064057;28;20462;-80
2023/09/01 04:26:03;;;;;;;5.13;2.47;;;17.50;82.80;;;;;;5081297;28;20453;-78
2023/09/01 04:28:33;;;;;;;7.30;2.70;;;17.60;82.80;;;;;;5062960;28;20468;-80
2023/09/01 04:31:02;;;;;;;5.17;2.47;;;17.50;82.90;;;;;;5065161;28;20470;-80
2023/09/01 04:33:32;;;;;;;8.10;2.73;;;17.60;83.00;;;;;;5064320;28;20461;-79
2023/09/01 04:36:00;;;;;;;5.50;2.10;;;17.60;82.90;;;;;;5062581;28;20998;-81
2023/09/01 04:38:29;;;;;;;5.90;2.47;;;17.50;82.90;;;;;;5064524;28;20473;-81
2023/09/01 04:40:58;;;;;;;4.20;2.20;;;17.50;83.00;;;;;;5065139;28;20497;-82
2023/09/01 04:43:28;;;;;;;5.73;2.20;;;17.50;83.10;;;;;;5064137;28;20453;-79
2023/09/01 04:45:57;;;;;;;5.57;3.17;;;17.50;83.10;;;;;;5064235;28;20449;-78
2023/09/01 04:48:28;;;;;;;4.40;2.00;;;17.50;83.10;;;;;;5066212;28;20464;-79
2023/09/01 04:50:56;;;;;;;5.70;2.23;;;17.50;83.20;;;;;;5057101;28;20457;-80
2023/09/01 04:53:24;;;;;;;4.90;2.50;;;17.50;83.20;;;;;;5064478;28;20483;-79
2023/09/01 04:55:54;;;;;;;4.97;2.23;;;17.50;83.30;;;;;;5063762;28;20457;-78
2023/09/01 04:58:22;;;;;;;4.40;2.30;;;17.50;83.40;;;;;;5065204;28;20958;-79
2023/09/01 05:00:53;;;;;;;5.03;2.63;;;17.50;83.40;;;;;;5061210;28;20556;-79
2023/09/01 05:03:21;;;;;;;5.40;2.67;;;17.60;83.40;;;;;;5059938;28;20563;-80
2023/09/01 05:05:50;;;;;;;5.50;2.70;;;17.60;83.30;;;;;;5062964;28;20478;-78
2023/09/01 05:08:20;;;;;;;5.47;2.50;;;17.60;83.30;;;;;;5075155;28;20512;-79
2023/09/01 05:10:49;;;;;;;6.20;2.47;;;17.50;83.40;;;;;;5061866;28;20534;-80
2023/09/01 05:13:17;;;;;;;5.90;2.37;;;17.50;83.50;;;;;;5066399;28;21044;-79
2023/09/01 05:15:47;;;;;;;6.10;2.70;;;17.50;83.60;;;;;;5059148;28;20557;-78
2023/09/01 05:18:18;;;;;;;4.80;2.23;;;17.60;83.70;;;;;;5065638;28;20470;-78
2023/09/01 05:20:49;;;;;;;4.83;2.50;;;17.60;83.70;;;;;;5061446;28;20458;-79
2023/09/01 05:23:17;;;;;;;5.70;2.80;;;17.60;83.70;;;;;;5067439;28;20457;-78
2023/09/01 05:25:45;;;;;;;6.70;2.57;;;17.60;83.70;;;;;;5065042;28;20854;-80
2023/09/01 05:28:14;;;;;;;4.60;2.40;;;17.60;83.70;;;;;;5068135;28;20456;-79
2023/09/01 05:30:42;;;;;;;5.37;2.63;;;17.60;83.80;;;;;;5066088;28;20484;-80
2023/09/01 05:33:10;;;;;;;5.37;2.50;;;17.60;83.90;;;;;;5081281;28;20892;-79
2023/09/01 05:35:43;;;;;;;5.30;2.30;;;17.60;83.90;;;;;;5081747;28;20457;-78
2023/09/01 05:38:12;;;;;;;5.37;2.77;;;17.60;84.00;;;;;;5082216;28;20470;-81
2023/09/01 05:40:40;;;;;;;4.97;2.40;;;17.60;84.00;;;;;;5066776;28;20469;-79
2023/09/01 05:43:09;;;;;;;5.40;2.50;;;17.60;84.00;;;;;;5065093;28;20486;-80
2023/09/01 05:45:37;;;;;;;6.20;2.20;;;17.60;84.00;;;;;;5069054;28;20466;-79
2023/09/01 05:48:07;;;;;;;5.17;2.10;;;17.60;84.10;;;;;;5068046;28;20461;-80
2023/09/01 05:50:35;;;;;;;4.90;2.33;;;17.70;84.10;;;;;;5068850;28;20453;-78
2023/09/01 05:53:05;;;;;;;4.73;2.50;;;17.70;84.20;;;;;;5068113;28;20470;-77
2023/09/01 05:55:33;;;;;;;6.70;2.80;;;17.70;84.20;;;;;;5068834;28;20445;-79
2023/09/01 05:58:01;;;;;;;5.00;2.53;;;17.70;84.20;;;;;;5068476;28;20449;-80
2023/09/01 06:00:29;;;;;;;4.77;2.53;;;17.70;84.30;;;;;;5065474;28;20478;-79
2023/09/01 06:02:58;;;;;;;4.90;2.53;;;17.80;84.40;;;;;;5069242;28;20991;-79
2023/09/01 06:05:26;;;;;;;6.70;2.87;;;17.90;84.40;;;;;;5067175;28;20998;-80
2023/09/01 06:07:54;;;;;;;5.70;2.17;;;17.90;84.40;;;;;;5067202;28;20955;-78
2023/09/01 06:10:23;;;;;;;6.17;2.60;;;18.00;84.30;;;;;;5068756;28;20533;-79
2023/09/01 06:12:51;;;;;;;7.00;2.70;;;18.00;84.40;;;;;;5081036;28;20548;-79
2023/09/01 06:15:19;;;;;;;7.10;2.70;;;18.00;84.40;;;;;;5070461;28;20464;-79
2023/09/01 06:17:49;;;;;;;4.60;2.20;;;18.00;84.50;;;;;;5068092;28;20936;-80
2023/09/01 06:20:17;;;;;;;5.60;2.60;;;18.10;84.50;;;;;;5067308;28;20552;-80
2023/09/01 06:22:47;;;;;;;4.80;2.83;;;18.10;84.50;;;;;;5069440;28;20442;-78
2023/09/01 06:25:17;;;;;;;4.43;2.20;;;18.10;84.50;;;;;;5070298;28;20492;-78
2023/09/01 06:27:48;;;;;;;7.63;3.43;;;18.10;84.60;;;;;;5065863;28;20462;-78
2023/09/01 06:30:16;;;;;;;5.33;3.40;;;18.10;84.50;;;;;;5068108;28;20541;-80
2023/09/01 06:32:44;;;;;;;7.40;3.50;;;18.10;84.50;;;;;;5070889;28;20477;-79
2023/09/01 06:35:16;;;;;;;6.20;2.80;;;18.10;84.70;;;;;;5069439;28;20445;-76
2023/09/01 06:37:44;;;;;;;6.83;3.27;;;18.20;84.70;;;;;;5069224;28;20507;-79
2023/09/01 06:40:12;;;;;;;10.37;3.00;;;18.20;84.70;;;;;;5068247;28;20472;-80
2023/09/01 06:42:40;;;;;;;5.40;2.53;;;18.20;84.70;;;;;;5064991;28;20465;-79
2023/09/01 06:45:10;;;;;;;7.00;3.37;;;18.20;84.70;;;;;;5069331;28;20832;-80
2023/09/01 06:47:38;;;;;;;9.37;2.93;;;18.20;84.70;;;;;;5069291;28;21187;-78
2023/09/01 06:50:07;;;;;;;6.90;3.30;;;18.20;84.70;;;;;;5067150;28;20446;-80
2023/09/01 06:52:35;;;;;;;6.67;3.80;;;18.30;84.90;;;;;;5084489;28;20457;-77
2023/09/01 06:55:03;;;;;;;7.10;3.30;;;18.30;85.00;;;;;;5066646;28;20932;-78
2023/09/01 06:57:31;;;;;;;6.13;3.50;;;18.40;84.90;;;;;;5061213;28;20545;-78
2023/09/01 06:59:59;;;;;;;5.53;3.57;;;18.40;84.90;;;;;;5067381;28;20537;-79
2023/09/01 07:02:36;;;;;;;6.90;3.63;;;18.40;84.90;;;;;;5067842;28;20470;-79
2023/09/01 07:05:05;;;;;;;6.70;4.10;;;18.50;85.00;;;;;;5083083;28;20484;-79
2023/09/01 07:07:33;;;;;;;7.30;4.20;;;18.50;85.00;;;;;;5061867;28;20505;-78
2023/09/01 07:10:01;;;;;;;9.10;4.10;;;18.50;85.10;;;;;;5066569;28;20805;-80
2023/09/01 07:12:29;;;;;;;6.70;4.20;;;18.60;85.10;;;;;;5064473;28;20953;-78
2023/09/01 07:14:57;;;;;;;9.07;5.07;;;18.60;85.00;;;;;;5060466;28;20456;-79
2023/09/01 07:17:25;;;;;;;8.83;4.97;;;18.50;85.10;;;;;;5066403;28;20853;-79
2023/09/01 07:19:54;;;;;;;9.03;4.20;;;18.50;85.10;;;;;;5065690;28;20445;-79
2023/09/01 07:22:23;;;;;;;7.23;4.40;;;18.60;85.20;;;;;;5067051;28;20853;-79
2023/09/01 07:24:53;;;;;;;10.87;5.17;;;18.60;85.20;;;;;;5065131;28;20463;-77
2023/09/01 07:27:20;;;;;;;7.40;4.70;;;18.60;85.30;;;;;;5068217;28;20458;-78
2023/09/01 07:29:49;;;;;;;6.90;3.43;;;18.60;85.30;;;;;;5064915;28;20861;-80
2023/09/01 07:32:17;;;;;;;7.10;4.43;;;18.60;85.30;;;;;;5065681;28;20473;-80
2023/09/01 07:34:47;;;;;;;6.27;4.07;;;18.60;85.30;;;;;;5064473;28;20537;-78
2023/09/01 07:37:17;;;;;;;7.47;4.60;;;18.60;85.30;;;;;;5067243;28;21023;-78
2023/09/01 07:39:45;;;;;;;6.63;4.20;;;18.60;85.30;;;;;;5065404;28;20880;-78
2023/09/01 07:42:13;;;;;;;8.40;3.87;;;18.60;85.30;;;;;;5065474;28;20459;-78
2023/09/01 07:44:41;;;;;;;6.30;3.10;;;18.60;85.40;;;;;;5069717;28;20540;-79
2023/09/01 07:47:09;;;;;;;6.80;3.60;;;18.60;85.50;;;;;;5065864;28;20481;-79
2023/09/01 07:49:37;;;;;;;5.40;2.90;;;18.60;85.60;;;;;;5068395;28;20536;-78
2023/09/01 07:52:05;;;;;;;4.57;2.73;;;18.60;85.80;;;;;;5066246;28;20445;-79
2023/09/01 07:54:34;;;;;;;4.90;2.30;;;18.60;85.90;;;;;;5067211;28;20967;-80
2023/09/01 07:57:03;;;;;;;4.53;2.50;;;18.70;85.90;;;;;;5062626;28;21033;-78
2023/09/01 07:59:31;;;;;;;5.03;2.37;;;18.70;86.00;;;;;;5068084;28;20446;-79
2023/09/01 08:01:59;;;;;;;4.23;2.13;;;18.70;86.00;;;;;;5064561;28;20568;-78
2023/09/01 08:04:27;;;;;;;6.03;2.60;;;18.80;86.00;;;;;;5063973;28;20450;-78
2023/09/01 08:06:55;;;;;;;5.40;1.90;;;18.80;85.90;;;;;;5066534;28;20576;-79
2023/09/01 08:09:23;;;;;;;5.83;1.97;;;18.90;85.90;;;;;;5064866;28;20540;-79
2023/09/01 08:11:52;;;;;;;4.10;1.80;;;18.90;85.90;;;;;;5065448;28;20470;-80
2023/09/01 08:14:20;;;;;;;3.90;1.87;;;18.90;85.90;;;;;;5083241;28;20468;-80
2023/09/01 08:16:48;;;;;;;4.20;2.10;;;19.00;85.90;;;;;;5068833;28;20450;-79
2023/09/01 08:19:16;;;;;;;5.63;2.17;;;19.00;86.00;;;;;;5073990;28;20463;-79
2023/09/01 08:21:44;;;;;;;5.23;2.20;;;19.00;86.00;;;;;;5061136;28;20473;-78
2023/09/01 08:24:12;;;;;;;5.73;2.40;;;19.00;86.10;;;;;;5063244;28;20970;-80
2023/09/01 08:26:41;;;;;;;4.77;2.40;;;19.00;86.10;;;;;;5063761;28;20842;-79
2023/09/01 08:29:10;;;;;;;4.27;1.87;;;19.10;86.20;;;;;;5063409;28;20461;-80
2023/09/01 08:31:39;;;;;;;4.20;2.07;;;19.10;86.20;;;;;;5064178;28;20481;-80
2023/09/01 08:34:10;;;;;;;4.00;1.80;;;19.10;86.20;;;;;;5064085;28;20462;-80
2023/09/01 08:36:39;;;;;;;4.13;2.07;;;19.20;86.20;;;;;;5058070;28;20474;-80
2023/09/01 08:39:07;;;;;;;5.00;2.10;;;19.20;86.20;;;;;;5067756;28;20456;-79
2023/09/01 08:41:35;;;;;;;4.27;2.10;;;19.30;86.10;;;;;;5062022;28;20478;-78
2023/09/01 08:44:06;;;;;;;7.50;2.90;;;19.20;86.20;;;;;;5067126;28;20453;-79
2023/09/01 08:46:37;;;;;;;5.00;2.40;;;19.30;86.30;;;;;;5067984;28;20470;-78
2023/09/01 08:49:05;;;;;;;5.37;3.07;;;19.30;86.30;;;;;;5068434;28;20441;-79
2023/09/01 08:51:33;;;;;;;5.17;2.87;;;19.30;86.30;;;;;;5065201;28;20826;-78
2023/09/01 08:54:01;;;;;;;6.00;4.07;;;19.40;86.20;;;;;;5065991;28;20449;-79
2023/09/01 08:56:32;;;;;;;5.40;3.63;;;19.30;86.30;;;;;;5064672;28;20777;-79
2023/09/01 08:59:01;;;;;;;7.63;3.90;;;19.40;86.30;;;;;;5067752;28;20441;-80
2023/09/01 09:01:30;;;;;;;7.37;4.97;;;19.40;86.30;;;;;;5062471;28;20468;-79
2023/09/01 09:04:03;;;;;;;7.00;4.67;;;19.40;86.30;;;;;;5078465;28;20481;-78
2023/09/01 09:06:32;;;;;;;5.67;4.27;;;19.40;86.20;;;;;;5065335;28;20466;-80
2023/09/01 09:09:11;;;;;;;6.50;4.70;;;19.40;86.30;;;;;;5067149;28;20538;-78
2023/09/01 09:11:39;;;;;;;8.80;5.07;;;19.40;86.40;;;;;;5062608;28;21040;-79
2023/09/01 09:14:08;;;;;;;6.60;5.23;;;19.40;86.40;;;;;;5063281;28;20877;-80
2023/09/01 09:16:51;;;;;;;7.07;4.67;;;19.50;86.50;;;;;;5064728;28;20482;-79
2023/09/01 09:19:22;;;;;;;7.53;4.30;;;19.50;86.50;;;;;;5063049;28;20450;-80
2023/09/01 09:21:50;;;;;;;9.10;4.90;;;19.50;86.50;;;;;;5068802;28;20488;-77
2023/09/01 09:24:35;;;;;;;6.20;4.30;;;19.50;86.50;;;;;;5063081;28;20508;-80
2023/09/01 09:27:05;;;;;;;6.90;4.00;;;19.60;86.50;;;;;;5063622;28;20484;-78
2023/09/01 09:29:41;;;;;;;6.57;4.50;;;19.50;86.60;;;;;;5063289;28;20545;-79
2023/09/01 09:32:27;;;;;;;6.57;4.30;;;19.60;86.60;;;;;;5064836;28;20497;-79
2023/09/01 09:35:12;;;;;;;6.00;3.60;;;19.60;86.60;;;;;;5065691;28;20539;-79
2023/09/01 09:37:42;;;;;;;7.43;4.40;;;19.60;86.70;;;;;;5063701;28;20828;-79
2023/09/01 09:40:11;;;;;;;6.40;3.63;;;19.60;86.70;;;;;;5066884;28;20454;-80
2023/09/01 09:42:41;;;;;;;6.70;4.00;;;19.70;86.70;;;;;;5065253;28;20461;-79
2023/09/01 09:45:23;;;;;;;7.30;4.47;;;19.70;86.70;;;;;;5063015;28;20962;-78
2023/09/01 09:47:51;;;;;;;6.37;3.80;;;19.70;86.70;;;;;;5063924;28;20817;-79
2023/09/01 09:50:22;;;;;;;7.80;4.13;;;19.70;86.60;;;;;;5068404;28;20496;-79
2023/09/01 09:52:55;;;;;;;7.73;4.20;;;19.70;86.60;;;;;;5081216;28;20456;-78
2023/09/01 09:55:26;;;;;;;7.07;4.03;;;19.70;86.50;;;;;;5067414;28;20441;-79
2023/09/01 09:58:02;;;;;;;9.03;4.43;;;19.70;86.60;;;;;;5066469;28;20450;-79
2023/09/01 10:00:32;;;;;;;7.33;4.80;;;19.70;86.70;;;;;;5065832;28;20469;-79
2023/09/01 10:03:03;;;;;;;7.30;4.60;;;19.80;86.60;;;;;;5062400;28;20479;-77
2023/09/01 10:05:33;;;;;;;6.53;4.40;;;19.80;86.60;;;;;;5065020;28;20466;-79
2023/09/01 10:08:03;;;;;;;8.20;4.97;;;19.90;86.60;;;;;;5080372;28;20481;-80
2023/09/01 10:10:33;;;;;;;8.10;4.80;;;19.90;86.60;;;;;;5066586;28;20529;-78
2023/09/01 10:13:04;;;;;;;8.80;4.63;;;19.90;86.70;;;;;;5069157;28;20458;-79
2023/09/01 10:15:33;;;;;;;11.47;5.30;;;19.90;86.70;;;;;;5063358;28;20553;-80
2023/09/01 10:18:04;;;;;;;7.67;5.20;;;20.00;86.60;;;;;;5066502;28;20451;-80
2023/09/01 10:20:35;;;;;;;9.10;5.10;;;20.00;86.60;;;;;;5068199;28;20548;-78
2023/09/01 10:23:04;;;;;;;8.00;5.60;;;20.00;86.70;;;;;;5064179;28;20473;-80
2023/09/01 10:25:34;;;;;;;8.57;4.70;;;20.00;86.80;;;;;;5069982;28;20457;-77
2023/09/01 10:28:05;;;;;;;7.87;5.80;;;20.10;86.80;;;;;;5066587;28;20481;-79
2023/09/01 10:30:34;;;;;;;8.17;5.10;;;20.10;86.80;;;;;;5066360;28;20466;-78
2023/09/01 10:33:10;;;;;;;7.00;5.17;;;20.10;86.80;;;;;;5060791;28;21224;-79
2023/09/01 10:35:42;;;;;;;8.63;5.20;;;20.20;86.90;;;;;;5067067;28;20506;-78
2023/09/01 10:38:12;;;;;;;9.00;5.50;;;20.20;86.90;;;;;;5065237;28;20931;-80
2023/09/01 10:40:42;;;;;;;10.83;5.33;;;20.20;86.90;;;;;;5076910;28;20462;-79
2023/09/01 10:43:11;;;;;;;7.80;4.67;;;20.30;86.90;;;;;;5069715;28;20471;-81
2023/09/01 10:45:39;;;;;;;7.20;4.70;;;20.40;86.90;;;;;;5060486;28;20490;-78
2023/09/01 10:48:11;;;;;;;6.37;4.70;;;20.40;86.90;;;;;;5066347;28;20477;-78
2023/09/01 10:50:42;;;;;;;5.60;3.97;;;20.50;86.80;;;;;;5067317;28;20464;-76
2023/09/01 10:53:33;;;;;;;6.80;4.40;;;20.50;86.60;;;;;;5065478;28;20487;-79
2023/09/01 10:56:10;;;;;;;8.37;5.30;;;20.50;86.60;;;;;;5065178;28;20454;-78
2023/09/01 10:58:49;;;;;;;7.33;5.10;;;20.50;86.60;;;;;;5065104;28;20525;-87
2023/09/01 11:01:33;;;;;;;9.27;4.87;;;20.60;86.80;;;;;;5064076;28;20492;-88
2023/09/01 11:04:33;;;;;;;7.20;4.97;;;20.70;86.80;;;;;;5066385;28;20465;-89
2023/09/01 11:07:08;;;;;;;9.07;5.20;;;20.80;86.90;;;;;;5067480;28;20496;-90
2023/09/01 11:09:55;;;;;;;6.93;4.40;;;20.90;86.80;;;;;;5067301;28;20501;-88
2023/09/01 11:12:32;;;;;;;7.43;4.30;;;21.00;86.80;;;;;;5063869;28;20927;-90
2023/09/01 11:15:04;;;;;;;7.43;3.97;;;21.10;86.70;;;;;;5068106;28;20468;-89
2023/09/01 11:17:58;;;;;;;6.30;3.70;;;21.10;86.40;;;;;;5073855;28;20463;-90
2023/09/01 11:20:30;;;;;;;10.43;3.60;;;21.20;86.20;;;;;;5076462;28;20483;-90
2023/09/01 11:23:00;;;;;;;7.60;3.50;;;21.30;86.10;;;;;;5062612;28;20473;-91
2023/09/01 11:25:31;;;;;;;5.40;3.50;;;21.30;86.00;;;;;;5067393;28;20866;-89
2023/09/01 11:28:11;;;;;;;7.00;3.50;;;21.30;86.00;;;;;;5060888;28;20470;-89
2023/09/01 11:30:54;;;;;;;5.80;3.30;;;21.40;85.80;;;;;;5064741;28;20489;-90
2023/09/01 11:33:23;;;;;;;4.90;2.93;;;21.40;85.60;;;;;;5056334;28;20478;-89
2023/09/01 11:36:10;;;;;;;5.60;3.33;;;21.40;85.60;;;;;;5080026;28;20825;-89
2023/09/01 11:38:43;;;;;;;5.30;3.60;;;21.50;85.50;;;;;;5063853;28;20460;-89
2023/09/01 11:41:15;;;;;;;6.13;3.60;;;21.50;85.50;;;;;;5068026;28;20620;-89
2023/09/01 11:43:44;;;;;;;6.00;3.67;;;21.50;85.50;;;;;;5065922;28;20449;-89
2023/09/01 11:46:12;;;;;;;5.87;3.90;;;21.60;85.30;;;;;;5066676;28;20461;-89
2023/09/01 11:48:41;;;;;;;6.67;4.03;;;21.60;85.00;;;;;;5064615;28;20524;-89
2023/09/01 11:51:10;;;;;;;8.37;3.77;;;21.60;84.90;;;;;;5063345;28;20468;-90
2023/09/01 11:53:39;;;;;;;9.00;3.93;;;21.50;84.70;;;;;;5080631;28;20899;-89
2023/09/01 11:56:22;;;;;;;6.83;4.00;;;21.50;84.60;;;;;;5063278;28;20450;-89
2023/09/01 11:58:52;;;;;;;5.27;3.50;;;21.40;84.60;;;;;;5083102;28;20446;-90
2023/09/01 12:01:24;;;;;;;6.50;3.10;;;21.30;84.70;;;;;;5077473;28;20498;-89
2023/09/01 12:03:54;;;;;;;6.10;3.07;;;21.20;84.80;;;;;;5065812;28;20854;-89
2023/09/01 12:06:24;;;;;;;12.40;2.90;;;21.20;84.70;;;;;;5076846;28;21001;-88
2023/09/01 12:09:12;;;;;;;7.27;2.90;;;21.10;84.80;;;;;;5069678;28;20509;-89
2023/09/01 12:11:52;;;;;;;6.17;2.60;;;21.00;84.70;;;;;;5079047;28;20458;-89
2023/09/01 12:14:24;;;;;;;5.50;2.23;;;21.00;84.80;;;;;;5080948;28;20457;-89
2023/09/01 12:16:53;;;;;;;5.70;2.30;;;20.90;84.80;;;;;;5063142;28;20466;-89
2023/09/01 12:19:23;;;;;;;6.57;2.50;;;20.80;84.90;;;;;;5073152;28;20519;-89
2023/09/01 12:21:51;;;;;;;6.67;2.17;;;20.70;85.00;;;;;;5056995;28;20453;-89
2023/09/01 12:24:21;;;;;;;9.43;1.93;;;20.60;85.10;;;;;;5066278;28;20902;-90
2023/09/01 12:26:50;;;;;;;4.80;1.60;;;20.60;85.10;;;;;;5067764;28;20462;-89
2023/09/01 12:29:19;;;;;;;8.70;1.73;;;20.50;85.20;;;;;;5079866;28;20469;-89
2023/09/01 12:31:48;;;;;;;4.90;1.60;;;20.50;85.20;;;;;;5058678;28;20470;-89
2023/09/01 12:34:17;;;;;;;4.93;2.07;;;20.40;85.30;;;;;;5083747;28;20457;-89
2023/09/01 12:36:45;;;;;;;7.30;1.93;;;20.40;85.50;;;;;;5059483;28;20454;-90
2023/09/01 12:39:13;;;;;;;4.33;1.40;;;20.40;85.50;;;;;;5075570;28;20461;-89
2023/09/01 12:41:42;;;;;;;5.33;1.77;;;20.40;85.60;;;;;;5060877;28;20459;-90
2023/09/01 12:44:10;;;;;;;4.97;1.73;;;20.40;85.70;;;;;;5059967;28;20461;-90
2023/09/01 12:46:38;;;;;;;5.97;2.07;;;20.40;85.80;;;;;;5078179;28;20458;-90
2023/09/01 12:49:11;;;;;;;5.13;1.97;;;20.40;85.90;;;;;;5071755;28;20539;-91
2023/09/01 12:51:42;;;;;;;6.20;1.90;;;20.40;86.00;;;;;;5060664;28;20450;-92
2023/09/01 12:54:10;;;;;;;6.70;1.77;;;20.50;86.00;;;;;;5064655;28;20516;-91
2023/09/01 12:56:38;;;;;;;4.70;1.80;;;20.50;86.00;;;;;;5065602;28;20462;-90
2023/09/01 12:59:08;;;;;;;4.20;1.60;;;20.50;86.30;;;;;;5066528;28;20487;-91
2023/09/01 13:01:38;;;;;;;4.60;1.80;;;20.50;86.60;;;;;;5065896;28;20470;-91